sensor_id;sensor_type;location;lat;lon;timestamp;P1;durP1;ratioP1;P2;durP2;ratioP2
12603;SDS011;6367;52.508;13.284;2023-04-02T00:02:44;6.67;;;4.70;;
12603;SDS011;6367;52.508;13.284;2023-04-02T00:07:43;5.97;;;5.13;;
12603;SDS011;6367;52.508;13.284;2023-04-02T00:10:26;5.67;;;5.07;;
12603;SDS011;6367;52.508;13.284;2023-04-02T00:12:59;4.77;;;3.97;;
12603;SDS011;6367;52.508;13.284;2023-04-02T00:15:25;6.47;;;4.83;;
12603;SDS011;6367;52.508;13.284;2023-04-02T00:17:52;4.87;;;4.10;;
12603;SDS011;6367;52.508;13.284;2023-04-02T00:20:18;4.37;;;3.87;;
12603;SDS011;6367;52.508;13.284;2023-04-02T00:22:46;8.03;;;4.17;;
12603;SDS011;6367;52.508;13.284;2023-04-02T00:25:13;6.00;;;4.00;;
12603;SDS011;6367;52.508;13.284;2023-04-02T00:27:39;4.90;;;4.07;;
12603;SDS011;6367;52.508;13.284;2023-04-02T00:30:06;5.20;;;4.20;;
12603;SDS011;6367;52.508;13.284;2023-04-02T00:32:33;5.60;;;4.40;;
12603;SDS011;6367;52.508;13.284;2023-04-02T00:35:00;6.27;;;4.80;;
12603;SDS011;6367;52.508;13.284;2023-04-02T00:37:27;5.83;;;3.70;;
12603;SDS011;6367;52.508;13.284;2023-04-02T00:40:23;6.50;;;3.57;;
12603;SDS011;6367;52.508;13.284;2023-04-02T00:42:48;4.60;;;4.20;;
12603;SDS011;6367;52.508;13.284;2023-04-02T00:45:21;7.67;;;4.50;;
12603;SDS011;6367;52.508;13.284;2023-04-02T00:47:53;5.23;;;3.93;;
12603;SDS011;6367;52.508;13.284;2023-04-02T00:50:33;6.67;;;4.00;;
12603;SDS011;6367;52.508;13.284;2023-04-02T00:53:06;4.60;;;4.13;;
12603;SDS011;6367;52.508;13.284;2023-04-02T00:55:38;4.20;;;3.50;;
12603;SDS011;6367;52.508;13.284;2023-04-02T00:58:26;5.27;;;4.80;;
12603;SDS011;6367;52.508;13.284;2023-04-02T01:01:00;3.73;;;3.43;;
12603;SDS011;6367;52.508;13.284;2023-04-02T01:03:27;4.20;;;3.80;;
12603;SDS011;6367;52.508;13.284;2023-04-02T01:09:17;4.97;;;4.30;;
12603;SDS011;6367;52.508;13.284;2023-04-02T01:23:03;3.90;;;3.60;;
12603;SDS011;6367;52.508;13.284;2023-04-02T01:25:44;5.33;;;3.80;;
12603;SDS011;6367;52.508;13.284;2023-04-02T01:31:26;7.47;;;5.03;;
12603;SDS011;6367;52.508;13.284;2023-04-02T01:33:54;3.93;;;3.23;;
12603;SDS011;6367;52.508;13.284;2023-04-02T01:39:18;6.07;;;3.77;;
12603;SDS011;6367;52.508;13.284;2023-04-02T01:42:16;5.17;;;3.83;;
12603;SDS011;6367;52.508;13.284;2023-04-02T01:44:49;8.23;;;3.83;;
12603;SDS011;6367;52.508;13.284;2023-04-02T01:47:18;4.70;;;4.30;;
12603;SDS011;6367;52.508;13.284;2023-04-02T01:49:51;4.27;;;3.90;;
12603;SDS011;6367;52.508;13.284;2023-04-02T01:52:25;7.13;;;4.87;;
12603;SDS011;6367;52.508;13.284;2023-04-02T01:55:00;3.33;;;3.10;;
12603;SDS011;6367;52.508;13.284;2023-04-02T01:57:27;6.67;;;3.97;;
12603;SDS011;6367;52.508;13.284;2023-04-02T01:59:53;4.00;;;3.70;;
12603;SDS011;6367;52.508;13.284;2023-04-02T02:02:19;4.90;;;2.93;;
12603;SDS011;6367;52.508;13.284;2023-04-02T02:04:46;3.43;;;3.13;;
12603;SDS011;6367;52.508;13.284;2023-04-02T02:07:16;6.33;;;3.47;;
12603;SDS011;6367;52.508;13.284;2023-04-02T02:09:44;3.63;;;3.10;;
12603;SDS011;6367;52.508;13.284;2023-04-02T02:12:12;3.97;;;3.57;;
12603;SDS011;6367;52.508;13.284;2023-04-02T02:14:44;4.47;;;2.90;;
12603;SDS011;6367;52.508;13.284;2023-04-02T02:17:13;3.60;;;3.30;;
12603;SDS011;6367;52.508;13.284;2023-04-02T02:19:42;3.43;;;2.63;;
12603;SDS011;6367;52.508;13.284;2023-04-02T02:24:55;3.40;;;3.10;;
12603;SDS011;6367;52.508;13.284;2023-04-02T02:35:45;3.80;;;3.10;;
12603;SDS011;6367;52.508;13.284;2023-04-02T02:38:22;4.27;;;3.17;;
12603;SDS011;6367;52.508;13.284;2023-04-02T02:41:01;5.20;;;3.03;;
12603;SDS011;6367;52.508;13.284;2023-04-02T02:43:50;7.10;;;3.97;;
12603;SDS011;6367;52.508;13.284;2023-04-02T02:46:29;4.07;;;3.60;;
12603;SDS011;6367;52.508;13.284;2023-04-02T02:48:57;3.20;;;2.90;;
12603;SDS011;6367;52.508;13.284;2023-04-02T02:51:36;3.60;;;3.27;;
12603;SDS011;6367;52.508;13.284;2023-04-02T02:54:04;5.97;;;2.97;;
12603;SDS011;6367;52.508;13.284;2023-04-02T02:56:32;5.80;;;3.57;;
12603;SDS011;6367;52.508;13.284;2023-04-02T02:59:02;5.17;;;3.33;;
12603;SDS011;6367;52.508;13.284;2023-04-02T03:01:31;3.80;;;3.17;;
12603;SDS011;6367;52.508;13.284;2023-04-02T03:03:57;3.50;;;3.20;;
12603;SDS011;6367;52.508;13.284;2023-04-02T03:06:24;4.93;;;3.60;;
12603;SDS011;6367;52.508;13.284;2023-04-02T03:11:58;5.20;;;3.43;;
12603;SDS011;6367;52.508;13.284;2023-04-02T03:14:39;4.60;;;2.87;;
12603;SDS011;6367;52.508;13.284;2023-04-02T03:17:19;5.13;;;2.90;;
12603;SDS011;6367;52.508;13.284;2023-04-02T03:19:57;8.33;;;2.70;;
12603;SDS011;6367;52.508;13.284;2023-04-02T03:22:36;2.70;;;2.50;;
12603;SDS011;6367;52.508;13.284;2023-04-02T03:25:15;3.80;;;3.43;;
12603;SDS011;6367;52.508;13.284;2023-04-02T03:27:50;4.30;;;2.80;;
12603;SDS011;6367;52.508;13.284;2023-04-02T03:32:51;3.40;;;2.70;;
12603;SDS011;6367;52.508;13.284;2023-04-02T03:35:44;3.67;;;2.60;;
12603;SDS011;6367;52.508;13.284;2023-04-02T03:38:19;4.17;;;3.77;;
12603;SDS011;6367;52.508;13.284;2023-04-02T03:41:02;2.90;;;2.63;;
12603;SDS011;6367;52.508;13.284;2023-04-02T03:43:51;3.00;;;2.47;;
12603;SDS011;6367;52.508;13.284;2023-04-02T03:46:33;3.23;;;2.87;;
12603;SDS011;6367;52.508;13.284;2023-04-02T03:49:05;3.10;;;2.70;;
12603;SDS011;6367;52.508;13.284;2023-04-02T03:54:21;3.93;;;3.27;;
12603;SDS011;6367;52.508;13.284;2023-04-02T03:56:47;3.60;;;2.70;;
12603;SDS011;6367;52.508;13.284;2023-04-02T03:59:15;3.80;;;2.47;;
12603;SDS011;6367;52.508;13.284;2023-04-02T04:04:42;3.30;;;2.27;;
12603;SDS011;6367;52.508;13.284;2023-04-02T04:07:13;5.17;;;2.83;;
12603;SDS011;6367;52.508;13.284;2023-04-02T04:09:47;6.27;;;2.60;;
12603;SDS011;6367;52.508;13.284;2023-04-02T04:14:55;4.20;;;2.53;;
12603;SDS011;6367;52.508;13.284;2023-04-02T04:20:35;3.10;;;2.47;;
12603;SDS011;6367;52.508;13.284;2023-04-02T04:23:45;4.20;;;2.67;;
12603;SDS011;6367;52.508;13.284;2023-04-02T04:32:07;3.50;;;2.70;;
12603;SDS011;6367;52.508;13.284;2023-04-02T04:37:39;4.23;;;3.13;;
12603;SDS011;6367;52.508;13.284;2023-04-02T04:42:36;5.77;;;3.27;;
12603;SDS011;6367;52.508;13.284;2023-04-02T04:45:11;3.93;;;3.10;;
12603;SDS011;6367;52.508;13.284;2023-04-02T04:47:39;3.93;;;3.00;;
12603;SDS011;6367;52.508;13.284;2023-04-02T04:50:18;5.30;;;3.00;;
12603;SDS011;6367;52.508;13.284;2023-04-02T04:52:52;3.07;;;2.80;;
12603;SDS011;6367;52.508;13.284;2023-04-02T04:57:59;3.63;;;2.63;;
12603;SDS011;6367;52.508;13.284;2023-04-02T05:00:35;4.33;;;2.87;;
12603;SDS011;6367;52.508;13.284;2023-04-02T05:03:53;9.63;;;3.20;;
12603;SDS011;6367;52.508;13.284;2023-04-02T05:08:40;7.43;;;2.93;;
12603;SDS011;6367;52.508;13.284;2023-04-02T05:11:56;3.10;;;2.80;;
12603;SDS011;6367;52.508;13.284;2023-04-02T05:14:11;4.50;;;2.83;;
12603;SDS011;6367;52.508;13.284;2023-04-02T05:16:43;7.70;;;3.43;;
12603;SDS011;6367;52.508;13.284;2023-04-02T05:19:22;5.07;;;2.70;;
12603;SDS011;6367;52.508;13.284;2023-04-02T05:24:38;6.40;;;2.80;;
12603;SDS011;6367;52.508;13.284;2023-04-02T05:27:39;5.73;;;2.80;;
12603;SDS011;6367;52.508;13.284;2023-04-02T05:32:48;2.83;;;2.10;;
12603;SDS011;6367;52.508;13.284;2023-04-02T05:35:19;4.83;;;2.60;;
12603;SDS011;6367;52.508;13.284;2023-04-02T05:37:48;5.37;;;2.13;;
12603;SDS011;6367;52.508;13.284;2023-04-02T05:40:35;3.87;;;1.97;;
12603;SDS011;6367;52.508;13.284;2023-04-02T05:43:06;3.27;;;1.93;;
12603;SDS011;6367;52.508;13.284;2023-04-02T05:45:35;3.93;;;2.03;;
12603;SDS011;6367;52.508;13.284;2023-04-02T05:48:08;3.10;;;2.47;;
12603;SDS011;6367;52.508;13.284;2023-04-02T05:51:00;4.63;;;2.13;;
12603;SDS011;6367;52.508;13.284;2023-04-02T05:53:36;2.73;;;2.27;;
12603;SDS011;6367;52.508;13.284;2023-04-02T05:58:47;4.43;;;1.90;;
12603;SDS011;6367;52.508;13.284;2023-04-02T06:06:55;5.00;;;1.73;;
12603;SDS011;6367;52.508;13.284;2023-04-02T06:09:33;4.17;;;2.00;;
12603;SDS011;6367;52.508;13.284;2023-04-02T06:12:21;3.43;;;2.00;;
12603;SDS011;6367;52.508;13.284;2023-04-02T06:14:48;3.50;;;2.20;;
12603;SDS011;6367;52.508;13.284;2023-04-02T06:17:14;3.90;;;1.80;;
12603;SDS011;6367;52.508;13.284;2023-04-02T06:19:41;4.03;;;1.80;;
12603;SDS011;6367;52.508;13.284;2023-04-02T06:22:22;2.13;;;1.67;;
12603;SDS011;6367;52.508;13.284;2023-04-02T06:25:05;2.13;;;1.40;;
12603;SDS011;6367;52.508;13.284;2023-04-02T06:27:55;2.10;;;1.60;;
12603;SDS011;6367;52.508;13.284;2023-04-02T06:30:24;4.87;;;1.50;;
12603;SDS011;6367;52.508;13.284;2023-04-02T06:33:00;4.20;;;1.43;;
12603;SDS011;6367;52.508;13.284;2023-04-02T06:35:26;2.47;;;1.50;;
12603;SDS011;6367;52.508;13.284;2023-04-02T06:37:52;1.60;;;1.43;;
12603;SDS011;6367;52.508;13.284;2023-04-02T06:42:59;1.60;;;1.20;;
12603;SDS011;6367;52.508;13.284;2023-04-02T06:45:32;2.97;;;1.20;;
12603;SDS011;6367;52.508;13.284;2023-04-02T06:48:05;4.20;;;1.73;;
12603;SDS011;6367;52.508;13.284;2023-04-02T06:50:45;3.60;;;1.50;;
12603;SDS011;6367;52.508;13.284;2023-04-02T06:53:16;2.83;;;1.73;;
12603;SDS011;6367;52.508;13.284;2023-04-02T06:58:48;3.63;;;1.80;;
12603;SDS011;6367;52.508;13.284;2023-04-02T07:01:15;7.17;;;2.23;;
12603;SDS011;6367;52.508;13.284;2023-04-02T07:03:46;4.07;;;1.40;;
12603;SDS011;6367;52.508;13.284;2023-04-02T07:06:16;2.63;;;1.83;;
12603;SDS011;6367;52.508;13.284;2023-04-02T07:08:44;3.43;;;1.67;;
12603;SDS011;6367;52.508;13.284;2023-04-02T07:11:19;2.17;;;1.50;;
12603;SDS011;6367;52.508;13.284;2023-04-02T07:13:46;4.70;;;1.67;;
12603;SDS011;6367;52.508;13.284;2023-04-02T07:16:17;1.90;;;1.40;;
12603;SDS011;6367;52.508;13.284;2023-04-02T07:18:49;2.70;;;1.20;;
12603;SDS011;6367;52.508;13.284;2023-04-02T07:21:16;2.27;;;1.60;;
12603;SDS011;6367;52.508;13.284;2023-04-02T07:23:41;3.70;;;1.83;;
12603;SDS011;6367;52.508;13.284;2023-04-02T07:26:08;5.30;;;1.60;;
12603;SDS011;6367;52.508;13.284;2023-04-02T07:28:38;1.93;;;1.40;;
12603;SDS011;6367;52.508;13.284;2023-04-02T07:31:08;4.47;;;1.80;;
12603;SDS011;6367;52.508;13.284;2023-04-02T07:33:48;1.30;;;1.20;;
12603;SDS011;6367;52.508;13.284;2023-04-02T07:36:16;1.87;;;1.30;;
12603;SDS011;6367;52.508;13.284;2023-04-02T07:38:43;2.13;;;1.20;;
12603;SDS011;6367;52.508;13.284;2023-04-02T07:41:10;2.23;;;1.50;;
12603;SDS011;6367;52.508;13.284;2023-04-02T07:43:36;2.67;;;1.50;;
12603;SDS011;6367;52.508;13.284;2023-04-02T07:46:03;2.67;;;1.10;;
12603;SDS011;6367;52.508;13.284;2023-04-02T07:48:29;4.77;;;1.33;;
12603;SDS011;6367;52.508;13.284;2023-04-02T07:50:55;3.20;;;1.20;;
12603;SDS011;6367;52.508;13.284;2023-04-02T07:53:25;2.27;;;2.00;;
12603;SDS011;6367;52.508;13.284;2023-04-02T07:55:57;4.37;;;1.63;;
12603;SDS011;6367;52.508;13.284;2023-04-02T07:58:25;5.43;;;2.47;;
12603;SDS011;6367;52.508;13.284;2023-04-02T08:00:51;1.63;;;1.23;;
12603;SDS011;6367;52.508;13.284;2023-04-02T08:03:16;3.57;;;1.30;;
12603;SDS011;6367;52.508;13.284;2023-04-02T08:05:42;2.10;;;1.20;;
12603;SDS011;6367;52.508;13.284;2023-04-02T08:08:13;2.77;;;1.33;;
12603;SDS011;6367;52.508;13.284;2023-04-02T08:10:38;3.00;;;1.33;;
12603;SDS011;6367;52.508;13.284;2023-04-02T08:13:04;5.37;;;1.50;;
12603;SDS011;6367;52.508;13.284;2023-04-02T08:15:30;2.77;;;1.63;;
12603;SDS011;6367;52.508;13.284;2023-04-02T08:17:55;1.40;;;1.30;;
12603;SDS011;6367;52.508;13.284;2023-04-02T08:20:21;1.30;;;1.10;;
12603;SDS011;6367;52.508;13.284;2023-04-02T08:22:47;2.43;;;1.23;;
12603;SDS011;6367;52.508;13.284;2023-04-02T08:25:16;5.93;;;1.40;;
12603;SDS011;6367;52.508;13.284;2023-04-02T08:27:41;4.43;;;1.80;;
12603;SDS011;6367;52.508;13.284;2023-04-02T08:30:10;3.77;;;1.80;;
12603;SDS011;6367;52.508;13.284;2023-04-02T08:32:37;2.50;;;1.60;;
12603;SDS011;6367;52.508;13.284;2023-04-02T08:35:05;4.90;;;1.40;;
12603;SDS011;6367;52.508;13.284;2023-04-02T08:37:31;3.03;;;1.50;;
12603;SDS011;6367;52.508;13.284;2023-04-02T08:39:57;3.70;;;1.70;;
12603;SDS011;6367;52.508;13.284;2023-04-02T08:42:39;5.47;;;3.03;;
12603;SDS011;6367;52.508;13.284;2023-04-02T08:45:18;2.13;;;1.80;;
12603;SDS011;6367;52.508;13.284;2023-04-02T08:47:57;6.20;;;2.50;;
12603;SDS011;6367;52.508;13.284;2023-04-02T08:53:01;2.43;;;1.47;;
12603;SDS011;6367;52.508;13.284;2023-04-02T09:00:54;4.13;;;1.50;;
12603;SDS011;6367;52.508;13.284;2023-04-02T09:05:50;3.20;;;1.57;;
12603;SDS011;6367;52.508;13.284;2023-04-02T09:08:18;6.03;;;1.83;;
12603;SDS011;6367;52.508;13.284;2023-04-02T09:13:29;4.43;;;2.27;;
12603;SDS011;6367;52.508;13.284;2023-04-02T09:16:02;2.50;;;1.50;;
12603;SDS011;6367;52.508;13.284;2023-04-02T09:18:33;4.40;;;1.30;;
12603;SDS011;6367;52.508;13.284;2023-04-02T09:21:01;2.53;;;1.40;;
12603;SDS011;6367;52.508;13.284;2023-04-02T09:23:44;2.10;;;1.77;;
12603;SDS011;6367;52.508;13.284;2023-04-02T09:26:20;3.20;;;1.57;;
12603;SDS011;6367;52.508;13.284;2023-04-02T09:28:52;6.17;;;2.00;;
12603;SDS011;6367;52.508;13.284;2023-04-02T09:31:42;2.77;;;1.43;;
12603;SDS011;6367;52.508;13.284;2023-04-02T09:34:33;2.90;;;1.67;;
12603;SDS011;6367;52.508;13.284;2023-04-02T09:37:07;2.80;;;1.60;;
12603;SDS011;6367;52.508;13.284;2023-04-02T09:39:43;4.30;;;1.50;;
12603;SDS011;6367;52.508;13.284;2023-04-02T09:42:27;3.93;;;1.30;;
12603;SDS011;6367;52.508;13.284;2023-04-02T09:45:21;4.30;;;1.50;;
12603;SDS011;6367;52.508;13.284;2023-04-02T09:47:48;4.20;;;1.67;;
12603;SDS011;6367;52.508;13.284;2023-04-02T09:52:52;2.03;;;1.63;;
12603;SDS011;6367;52.508;13.284;2023-04-02T09:55:28;3.00;;;1.50;;
12603;SDS011;6367;52.508;13.284;2023-04-02T09:58:11;3.13;;;1.40;;
12603;SDS011;6367;52.508;13.284;2023-04-02T10:00:38;3.43;;;1.10;;
12603;SDS011;6367;52.508;13.284;2023-04-02T10:03:23;4.33;;;1.63;;
12603;SDS011;6367;52.508;13.284;2023-04-02T10:06:10;6.07;;;1.83;;
12603;SDS011;6367;52.508;13.284;2023-04-02T10:08:41;3.63;;;1.60;;
12603;SDS011;6367;52.508;13.284;2023-04-02T10:11:12;7.53;;;2.07;;
12603;SDS011;6367;52.508;13.284;2023-04-02T10:13:52;4.80;;;1.60;;
12603;SDS011;6367;52.508;13.284;2023-04-02T10:16:29;1.63;;;0.97;;
12603;SDS011;6367;52.508;13.284;2023-04-02T10:21:37;3.30;;;1.30;;
12603;SDS011;6367;52.508;13.284;2023-04-02T10:24:12;3.97;;;1.33;;
12603;SDS011;6367;52.508;13.284;2023-04-02T10:29:43;3.77;;;1.30;;
12603;SDS011;6367;52.508;13.284;2023-04-02T10:32:36;2.50;;;1.63;;
12603;SDS011;6367;52.508;13.284;2023-04-02T10:35:18;5.03;;;1.40;;
12603;SDS011;6367;52.508;13.284;2023-04-02T10:38:08;3.10;;;1.30;;
12603;SDS011;6367;52.508;13.284;2023-04-02T10:51:46;2.47;;;1.30;;
12603;SDS011;6367;52.508;13.284;2023-04-02T10:57:15;1.57;;;1.17;;
12603;SDS011;6367;52.508;13.284;2023-04-02T10:59:48;2.40;;;1.30;;
12603;SDS011;6367;52.508;13.284;2023-04-02T11:02:24;2.57;;;1.57;;
12603;SDS011;6367;52.508;13.284;2023-04-02T11:05:12;3.60;;;2.10;;
12603;SDS011;6367;52.508;13.284;2023-04-02T11:07:49;4.93;;;1.40;;
12603;SDS011;6367;52.508;13.284;2023-04-02T11:10:18;4.20;;;1.83;;
12603;SDS011;6367;52.508;13.284;2023-04-02T11:12:53;3.80;;;1.53;;
12603;SDS011;6367;52.508;13.284;2023-04-02T11:15:23;2.87;;;1.50;;
12603;SDS011;6367;52.508;13.284;2023-04-02T11:17:50;4.70;;;1.67;;
12603;SDS011;6367;52.508;13.284;2023-04-02T11:23:09;2.57;;;1.33;;
12603;SDS011;6367;52.508;13.284;2023-04-02T11:25:45;5.50;;;1.70;;
12603;SDS011;6367;52.508;13.284;2023-04-02T11:28:32;3.97;;;1.43;;
12603;SDS011;6367;52.508;13.284;2023-04-02T11:30:57;2.90;;;1.30;;
12603;SDS011;6367;52.508;13.284;2023-04-02T11:35:55;1.40;;;1.30;;
12603;SDS011;6367;52.508;13.284;2023-04-02T11:41:10;2.50;;;1.60;;
12603;SDS011;6367;52.508;13.284;2023-04-02T11:46:44;3.00;;;2.00;;
12603;SDS011;6367;52.508;13.284;2023-04-02T11:52:00;5.00;;;1.73;;
12603;SDS011;6367;52.508;13.284;2023-04-02T11:54:28;3.03;;;1.63;;
12603;SDS011;6367;52.508;13.284;2023-04-02T11:57:24;3.37;;;1.50;;
12603;SDS011;6367;52.508;13.284;2023-04-02T12:05:57;4.03;;;1.60;;
12603;SDS011;6367;52.508;13.284;2023-04-02T12:08:39;4.37;;;1.90;;
12603;SDS011;6367;52.508;13.284;2023-04-02T12:11:27;2.67;;;1.70;;
12603;SDS011;6367;52.508;13.284;2023-04-02T12:13:59;7.87;;;2.43;;
12603;SDS011;6367;52.508;13.284;2023-04-02T12:16:25;1.90;;;1.50;;
12603;SDS011;6367;52.508;13.284;2023-04-02T12:18:57;3.60;;;1.70;;
12603;SDS011;6367;52.508;13.284;2023-04-02T12:21:25;2.47;;;1.50;;
12603;SDS011;6367;52.508;13.284;2023-04-02T12:23:53;2.80;;;1.30;;
12603;SDS011;6367;52.508;13.284;2023-04-02T12:28:51;2.93;;;1.50;;
12603;SDS011;6367;52.508;13.284;2023-04-02T12:31:16;3.47;;;1.90;;
12603;SDS011;6367;52.508;13.284;2023-04-02T12:33:45;2.80;;;1.70;;
12603;SDS011;6367;52.508;13.284;2023-04-02T12:36:20;3.57;;;1.43;;
12603;SDS011;6367;52.508;13.284;2023-04-02T12:41:35;3.77;;;1.43;;
12603;SDS011;6367;52.508;13.284;2023-04-02T12:44:02;4.83;;;1.53;;
12603;SDS011;6367;52.508;13.284;2023-04-02T12:46:40;3.50;;;1.60;;
12603;SDS011;6367;52.508;13.284;2023-04-02T12:49:07;1.93;;;1.27;;
12603;SDS011;6367;52.508;13.284;2023-04-02T12:51:45;5.50;;;1.50;;
12603;SDS011;6367;52.508;13.284;2023-04-02T12:54:15;2.50;;;1.60;;
12603;SDS011;6367;52.508;13.284;2023-04-02T12:56:43;3.90;;;1.50;;
12603;SDS011;6367;52.508;13.284;2023-04-02T13:01:56;2.93;;;1.33;;
12603;SDS011;6367;52.508;13.284;2023-04-02T13:04:24;3.17;;;1.47;;
12603;SDS011;6367;52.508;13.284;2023-04-02T13:06:51;3.63;;;1.60;;
12603;SDS011;6367;52.508;13.284;2023-04-02T13:09:28;5.70;;;1.30;;
12603;SDS011;6367;52.508;13.284;2023-04-02T13:12:18;2.87;;;1.47;;
12603;SDS011;6367;52.508;13.284;2023-04-02T13:14:56;1.60;;;1.20;;
12603;SDS011;6367;52.508;13.284;2023-04-02T13:22:57;3.30;;;1.37;;
12603;SDS011;6367;52.508;13.284;2023-04-02T13:25:27;3.03;;;1.30;;
12603;SDS011;6367;52.508;13.284;2023-04-02T13:27:54;2.50;;;1.20;;
12603;SDS011;6367;52.508;13.284;2023-04-02T13:30:21;4.30;;;1.50;;
12603;SDS011;6367;52.508;13.284;2023-04-02T13:32:49;2.83;;;1.20;;
12603;SDS011;6367;52.508;13.284;2023-04-02T13:35:15;3.83;;;1.40;;
12603;SDS011;6367;52.508;13.284;2023-04-02T13:37:41;4.20;;;1.33;;
12603;SDS011;6367;52.508;13.284;2023-04-02T13:40:08;2.10;;;1.37;;
12603;SDS011;6367;52.508;13.284;2023-04-02T13:42:37;3.90;;;1.60;;
12603;SDS011;6367;52.508;13.284;2023-04-02T13:45:28;1.90;;;1.27;;
12603;SDS011;6367;52.508;13.284;2023-04-02T13:47:57;3.27;;;1.90;;
12603;SDS011;6367;52.508;13.284;2023-04-02T13:50:26;2.63;;;1.40;;
12603;SDS011;6367;52.508;13.284;2023-04-02T13:52:55;3.73;;;1.30;;
12603;SDS011;6367;52.508;13.284;2023-04-02T13:55:24;4.20;;;1.20;;
12603;SDS011;6367;52.508;13.284;2023-04-02T13:57:53;2.27;;;1.40;;
12603;SDS011;6367;52.508;13.284;2023-04-02T14:00:20;3.23;;;1.20;;
12603;SDS011;6367;52.508;13.284;2023-04-02T14:02:47;9.13;;;5.27;;
12603;SDS011;6367;52.508;13.284;2023-04-02T14:05:22;8.50;;;4.23;;
12603;SDS011;6367;52.508;13.284;2023-04-02T14:08:04;1.83;;;1.00;;
12603;SDS011;6367;52.508;13.284;2023-04-02T14:24:22;2.30;;;1.13;;
12603;SDS011;6367;52.508;13.284;2023-04-02T14:29:55;1.17;;;0.90;;
12603;SDS011;6367;52.508;13.284;2023-04-02T14:35:06;2.70;;;1.10;;
12603;SDS011;6367;52.508;13.284;2023-04-02T14:37:40;3.20;;;1.40;;
12603;SDS011;6367;52.508;13.284;2023-04-02T14:42:51;1.63;;;1.10;;
12603;SDS011;6367;52.508;13.284;2023-04-02T14:45:35;3.83;;;1.50;;
12603;SDS011;6367;52.508;13.284;2023-04-02T14:51:03;7.00;;;1.30;;
12603;SDS011;6367;52.508;13.284;2023-04-02T14:53:47;2.43;;;1.10;;
12603;SDS011;6367;52.508;13.284;2023-04-02T14:56:15;3.70;;;1.37;;
12603;SDS011;6367;52.508;13.284;2023-04-02T14:58:43;3.93;;;1.30;;
12603;SDS011;6367;52.508;13.284;2023-04-02T15:04:15;3.27;;;1.40;;
12603;SDS011;6367;52.508;13.284;2023-04-02T15:06:49;2.43;;;1.23;;
12603;SDS011;6367;52.508;13.284;2023-04-02T15:12:06;1.97;;;1.00;;
12603;SDS011;6367;52.508;13.284;2023-04-02T15:14:38;1.63;;;1.00;;
12603;SDS011;6367;52.508;13.284;2023-04-02T15:17:11;1.77;;;1.00;;
12603;SDS011;6367;52.508;13.284;2023-04-02T15:19:37;1.80;;;1.20;;
12603;SDS011;6367;52.508;13.284;2023-04-02T15:30:17;2.50;;;1.23;;
12603;SDS011;6367;52.508;13.284;2023-04-02T15:32:47;3.33;;;1.40;;
12603;SDS011;6367;52.508;13.284;2023-04-02T15:38:18;2.03;;;1.23;;
12603;SDS011;6367;52.508;13.284;2023-04-02T15:46:26;4.20;;;1.73;;
12603;SDS011;6367;52.508;13.284;2023-04-02T15:51:28;3.00;;;1.53;;
12603;SDS011;6367;52.508;13.284;2023-04-02T16:10:32;2.93;;;1.10;;
12603;SDS011;6367;52.508;13.284;2023-04-02T16:13:12;2.20;;;1.37;;
12603;SDS011;6367;52.508;13.284;2023-04-02T16:15:54;2.90;;;1.70;;
12603;SDS011;6367;52.508;13.284;2023-04-02T16:21:32;1.63;;;1.30;;
12603;SDS011;6367;52.508;13.284;2023-04-02T16:24:04;4.73;;;1.43;;
12603;SDS011;6367;52.508;13.284;2023-04-02T16:34:33;1.47;;;1.10;;
12603;SDS011;6367;52.508;13.284;2023-04-02T16:39:58;3.30;;;1.30;;
12603;SDS011;6367;52.508;13.284;2023-04-02T16:45:27;4.47;;;1.87;;
12603;SDS011;6367;52.508;13.284;2023-04-02T17:10:52;3.43;;;1.40;;
12603;SDS011;6367;52.508;13.284;2023-04-02T17:18:39;3.57;;;2.07;;
12603;SDS011;6367;52.508;13.284;2023-04-02T17:21:09;5.17;;;1.40;;
12603;SDS011;6367;52.508;13.284;2023-04-02T17:23:44;2.93;;;1.80;;
12603;SDS011;6367;52.508;13.284;2023-04-02T17:26:13;2.20;;;1.10;;
12603;SDS011;6367;52.508;13.284;2023-04-02T17:28:43;4.37;;;1.60;;
12603;SDS011;6367;52.508;13.284;2023-04-02T17:31:19;3.60;;;1.60;;
12603;SDS011;6367;52.508;13.284;2023-04-02T17:33:47;5.13;;;1.87;;
12603;SDS011;6367;52.508;13.284;2023-04-02T17:49:41;2.10;;;1.10;;
12603;SDS011;6367;52.508;13.284;2023-04-02T17:57:45;2.60;;;1.53;;
12603;SDS011;6367;52.508;13.284;2023-04-02T18:00:21;2.70;;;1.30;;
12603;SDS011;6367;52.508;13.284;2023-04-02T18:05:45;3.40;;;1.67;;
12603;SDS011;6367;52.508;13.284;2023-04-02T18:17:26;3.50;;;1.20;;
12603;SDS011;6367;52.508;13.284;2023-04-02T18:20:30;3.03;;;2.00;;
12603;SDS011;6367;52.508;13.284;2023-04-02T18:34:30;2.90;;;1.73;;
12603;SDS011;6367;52.508;13.284;2023-04-02T18:37:15;4.43;;;1.97;;
12603;SDS011;6367;52.508;13.284;2023-04-02T18:50:29;3.10;;;1.50;;
12603;SDS011;6367;52.508;13.284;2023-04-02T18:53:00;3.30;;;1.67;;
12603;SDS011;6367;52.508;13.284;2023-04-02T18:55:40;3.60;;;2.07;;
12603;SDS011;6367;52.508;13.284;2023-04-02T18:58:15;3.13;;;1.37;;
12603;SDS011;6367;52.508;13.284;2023-04-02T19:00:46;4.40;;;1.77;;
12603;SDS011;6367;52.508;13.284;2023-04-02T19:03:19;4.40;;;1.63;;
12603;SDS011;6367;52.508;13.284;2023-04-02T19:10:58;4.30;;;1.40;;
12603;SDS011;6367;52.508;13.284;2023-04-02T19:13:27;3.57;;;1.50;;
12603;SDS011;6367;52.508;13.284;2023-04-02T19:16:04;4.97;;;2.40;;
12603;SDS011;6367;52.508;13.284;2023-04-02T19:19:18;5.57;;;1.93;;
12603;SDS011;6367;52.508;13.284;2023-04-02T19:27:59;3.60;;;2.07;;
12603;SDS011;6367;52.508;13.284;2023-04-02T19:39:04;4.70;;;2.23;;
12603;SDS011;6367;52.508;13.284;2023-04-02T19:44:26;2.93;;;1.80;;
12603;SDS011;6367;52.508;13.284;2023-04-02T19:46:52;3.30;;;1.47;;
12603;SDS011;6367;52.508;13.284;2023-04-02T19:49:20;7.67;;;2.17;;
12603;SDS011;6367;52.508;13.284;2023-04-02T19:51:54;6.03;;;1.87;;
12603;SDS011;6367;52.508;13.284;2023-04-02T19:54:21;3.40;;;1.70;;
12603;SDS011;6367;52.508;13.284;2023-04-02T19:56:47;4.87;;;2.30;;
12603;SDS011;6367;52.508;13.284;2023-04-02T19:59:12;5.40;;;1.87;;
12603;SDS011;6367;52.508;13.284;2023-04-02T20:01:38;4.70;;;1.97;;
12603;SDS011;6367;52.508;13.284;2023-04-02T20:04:04;3.17;;;1.50;;
12603;SDS011;6367;52.508;13.284;2023-04-02T20:06:30;3.10;;;1.70;;
12603;SDS011;6367;52.508;13.284;2023-04-02T20:08:56;3.40;;;1.60;;
12603;SDS011;6367;52.508;13.284;2023-04-02T20:11:23;4.60;;;2.20;;
12603;SDS011;6367;52.508;13.284;2023-04-02T20:13:50;2.70;;;1.77;;
12603;SDS011;6367;52.508;13.284;2023-04-02T20:16:18;4.30;;;1.67;;
12603;SDS011;6367;52.508;13.284;2023-04-02T20:18:44;4.80;;;1.60;;
12603;SDS011;6367;52.508;13.284;2023-04-02T20:21:10;5.47;;;1.50;;
12603;SDS011;6367;52.508;13.284;2023-04-02T20:23:36;4.77;;;1.63;;
12603;SDS011;6367;52.508;13.284;2023-04-02T20:26:02;5.10;;;1.60;;
12603;SDS011;6367;52.508;13.284;2023-04-02T20:28:28;4.93;;;1.80;;
12603;SDS011;6367;52.508;13.284;2023-04-02T20:31:08;4.60;;;1.63;;
12603;SDS011;6367;52.508;13.284;2023-04-02T20:33:39;3.67;;;1.63;;
12603;SDS011;6367;52.508;13.284;2023-04-02T20:36:06;3.17;;;1.50;;
12603;SDS011;6367;52.508;13.284;2023-04-02T20:38:34;3.87;;;1.40;;
12603;SDS011;6367;52.508;13.284;2023-04-02T20:41:01;7.40;;;1.50;;
12603;SDS011;6367;52.508;13.284;2023-04-02T20:43:28;3.97;;;1.97;;
12603;SDS011;6367;52.508;13.284;2023-04-02T20:45:58;3.23;;;1.83;;
12603;SDS011;6367;52.508;13.284;2023-04-02T20:48:25;3.67;;;1.60;;
12603;SDS011;6367;52.508;13.284;2023-04-02T20:50:54;3.83;;;1.77;;
12603;SDS011;6367;52.508;13.284;2023-04-02T20:53:21;4.60;;;1.50;;
12603;SDS011;6367;52.508;13.284;2023-04-02T20:55:47;5.97;;;1.67;;
12603;SDS011;6367;52.508;13.284;2023-04-02T20:58:13;3.40;;;1.93;;
12603;SDS011;6367;52.508;13.284;2023-04-02T21:00:40;5.87;;;1.57;;
12603;SDS011;6367;52.508;13.284;2023-04-02T21:03:06;6.20;;;1.60;;
12603;SDS011;6367;52.508;13.284;2023-04-02T21:05:33;6.00;;;1.67;;